Latest Coastal Weather Observations for Groote Eylandt Airport

IDD60701

Issued at 8:35 am CST Thursday 27 November 2014 (issued every 10 minutes, with the page automatically refreshed every 10 minutes)

About coastal observations | Map of coastal stations | Coastal observations for NT | Marine services | Other Formats
Station Details ID: 014518 Name: GROOTE EYLANDT AIRPORT Lat: -13.97 Lon: 136.46 Height: 13.7 m
Data from the previous 72 hours. | See also: Recent months at Groote Eylandt Airport
Date/Time
CST
Temp

°C
Wind Pressure Rain
since 9am
mm
Weather Cloud Vis
km
Sea
Height
m
Swell
Dir
 
Speed
knots
Gust
knots
hPa Trend Height
m
Period
s
Dir
27/08:30am 30.7 ENE 3 4 1010.0 - 0.4 - Partly cloudy 10 - - - -
27/08:00am 29.2 CALM 0 0 1009.7 - 0.4 - Partly cloudy 10 - - - -
27/07:30am 28.0 CALM 0 0 1009.5 - 0.4 - Partly cloudy 10 - - - -
27/07:00am 25.5 CALM 0 0 1009.2 - 0.4 - Partly cloudy - - - - -
27/06:30am 23.7 CALM 0 0 1009.0 - 0.4 - Partly cloudy - - - - -
27/06:00am 22.9 E 4 4 1008.4 - 0.4 - - - - - - -
27/05:30am 23.5 ENE 3 3 1008.0 - 0.4 - - - - - - -
27/05:00am 22.8 ESE 3 3 1007.7 - 0.4 - - - - - - -
27/04:30am 23.0 E 3 4 1007.2 - 0.4 - - - - - - -
27/04:00am 23.2 E 1 3 1007.0 - 0.4 - - 10 - - - -
27/03:30am 23.5 CALM 0 0 1007.0 - 0.4 - - 10 - - - -
27/03:00am 23.5 CALM 0 0 1006.9 - 0.4 - - 10 - - - -
27/02:30am 24.0 ENE 3 3 1007.1 - 0.4 - - 10 - - - -
27/02:00am 24.2 CALM 0 0 1007.3 - 0.4 - - 10 - - - -
27/01:30am 24.9 CALM 0 0 1007.6 - 0.4 - - 10 - - - -
27/01:00am 24.8 CALM 0 0 1007.9 - 0.4 - - 10 - - - -
27/12:30am 25.2 SE 2 3 1008.1 - 0.4 - - 10 - - - -
27/12:00am 25.6 CALM 0 0 1008.4 - 0.4 - - 10 - - - -
 
Date/Time
CST
Temp

°C
Wind Pressure Rain
since 9am
mm
Weather Cloud Vis
km
Sea
Height
m
Swell
Dir
 
Speed
knots
Gust
knots
hPa Trend Height
m
Period
s
Dir
26/11:30pm 26.8 NE 4 5 1008.8 - 0.4 - - 10 - - - -
26/11:00pm 27.0 ENE 5 6 1009.0 - 0.4 - - 10 - - - -
26/10:30pm 26.3 E 5 6 1008.9 - 0.4 - - 10 - - - -
26/10:00pm 27.2 ENE 5 6 1008.6 - 0.4 - - 10 - - - -
26/09:30pm 27.5 ENE 6 7 1008.2 - 0.4 - - 10 - - - -
26/09:00pm 27.6 ENE 5 7 1008.0 - 0.4 - - 10 - - - -
26/08:30pm 27.9 NE 5 6 1007.8 - 0.4 - - 10 - - - -
26/08:00pm 28.4 NE 3 4 1007.5 - 0.4 - - 10 - - - -
26/07:30pm 29.0 NNE 4 5 1007.3 - 0.4 - - 10 - - - -
26/07:00pm 29.6 W 1 3 1007.1 - 0.4 - - 10 - - - -
26/06:30pm 30.4 WNW 3 4 1006.7 - 0.4 - - 10 - - - -
26/06:00pm 31.2 W 3 5 1006.4 - 0.4 - - 10 - - - -
26/05:30pm 31.4 W 4 7 1006.4 - 0.4 - - 10 - - - -
26/05:00pm 31.3 WSW 5 8 1006.4 - 0.4 - - 10 - - - -
26/04:30pm 30.3 WNW 5 8 1006.3 - 0.4 - Partly cloudy 10 - - - -
26/04:00pm 29.5 WNW 5 11 1006.6 - 0.4 - Partly cloudy 10 - - - -
26/03:30pm 31.0 WSW 6 9 1006.6 - 0.4 - Partly cloudy 10 - - - -
26/03:00pm 30.7 WNW 8 11 1006.7 - 0.4 Rain Mostly clear 10 - - - -
26/02:30pm 29.6 W 6 8 1007.1 - 0.4 - Partly cloudy 10 - - - -
26/02:00pm 28.2 N 6 8 1007.5 - 0.4 - Partly cloudy 10 - - - -
26/01:30pm 30.2 WSW 6 11 1007.6 - 0.2 - Partly cloudy 10 - - - -
26/01:00pm 29.8 W 7 9 1008.1 - 0.2 - Partly cloudy 10 - - - -
26/12:30pm 29.0 WSW 5 9 1008.5 - 0.2 - Partly cloudy 10 - - - -
26/12:00pm 31.0 SW 6 11 1008.4 - 0.0 - Cloudy 10 - - - -
26/11:30am 31.1 NW 12 17 1008.7 - 0.0 - Partly cloudy 10 - - - -
26/11:00am 32.1 SW 5 9 1008.9 - 0.0 - Partly cloudy 10 - - - -
26/10:30am 30.7 W 7 11 1009.2 - 0.0 - Partly cloudy 10 - - - -
26/10:00am 30.8 W 6 11 1009.3 - 0.0 - Partly cloudy 10 - - - -
26/09:30am 31.4 S 5 7 1009.4 - 0.0 - Partly cloudy 10 - - - -
26/09:00am 31.2 SW 3 5 1009.4 - 0.0 - Mostly clear 10 - - - -
26/08:30am 30.1 SW 1 4 1009.4 - 0.0 - Partly cloudy - - - - -
26/08:00am 29.2 CALM 0 0 1009.4 - 0.0 - Partly cloudy - - - - -
26/07:30am 27.8 E 3 4 1009.1 - 0.0 - Partly cloudy - - - - -
26/07:00am 25.8 ESE 1 4 1008.8 - 0.0 - Partly cloudy - - - - -
26/06:30am 25.1 CALM 0 0 1008.4 - 0.0 - Cloudy - - - - -
26/06:00am 24.4 CALM 0 0 1007.9 - 0.0 - Partly cloudy - - - - -
26/05:30am 24.2 CALM 0 0 1007.4 - 0.0 - - - - - - -
26/05:00am 24.1 CALM 0 0 1006.8 - 0.0 - - - - - - -
26/04:30am 24.3 CALM 0 0 1006.7 - 0.0 - - 10 - - - -
26/04:00am 24.4 E 4 5 1006.7 - 0.0 - - 10 - - - -
26/03:30am 24.7 E 4 5 1006.7 - 0.0 - - 10 - - - -
26/03:00am 24.4 CALM 0 0 1006.4 - 0.0 - - 10 - - - -
26/02:30am 24.9 CALM 0 0 1006.7 - 0.0 - - 10 - - - -
26/02:00am 25.2 CALM 0 0 1006.8 - 0.0 - - 10 - - - -
26/01:30am 25.5 E 1 3 1006.8 - 0.0 - - 10 - - - -
26/01:00am 26.1 CALM 0 0 1007.1 - 0.0 - - 10 - - - -
26/12:30am 26.5 CALM 0 0 1007.6 - 0.0 - - 10 - - - -
26/12:00am 26.8 CALM 0 0 1008.1 - 0.0 - - 10 - - - -
 
Date/Time
CST
Temp

°C
Wind Pressure Rain
since 9am
mm
Weather Cloud Vis
km
Sea
Height
m
Swell
Dir
 
Speed
knots
Gust
knots
hPa Trend Height
m
Period
s
Dir
25/11:30pm 27.3 NE 3 4 1008.3 - 0.0 - - 10 - - - -
25/11:00pm 27.7 E 5 6 1008.3 - 0.0 - - 10 - - - -
25/10:30pm 28.3 E 5 7 1008.4 - 0.0 - - 10 - - - -
25/10:00pm 28.6 ENE 5 6 1008.5 - 0.0 - - 10 - - - -
25/09:30pm 28.7 NE 4 5 1008.4 - 0.0 - - 10 - - - -
25/09:00pm 29.0 E 6 7 1008.3 - 0.0 - Mostly cloudy 10 - - - -
25/08:30pm 29.2 E 6 7 1008.1 - 0.0 - Cloudy 10 - - - -
25/08:00pm 29.3 ENE 5 7 1007.7 - 0.0 - Cloudy 10 - - - -
25/07:30pm 29.5 ENE 4 7 1007.1 - 0.0 - Partly cloudy 10 - - - -
25/07:00pm 29.9 ENE 6 8 1006.8 - 0.0 - - 10 - - - -
25/06:30pm 30.6 ENE 7 9 1006.6 - 0.0 - - 10 - - - -
25/06:00pm 31.1 E 8 10 1006.2 - 0.0 - Mostly clear 10 - - - -
25/05:30pm 31.7 E 10 11 1006.3 - 0.0 - Partly cloudy 10 - - - -
25/05:00pm 32.0 SE 5 12 1006.2 - 0.0 - Partly cloudy 10 - - - -
25/04:30pm 31.2 S 5 6 1006.3 - 0.0 - Cloudy 10 - - - -
25/04:00pm 32.6 E 6 10 1006.1 - 0.0 - Partly cloudy 10 - - - -
25/03:30pm 33.6 S 7 12 1006.3 - 0.0 - Partly cloudy 10 - - - -
25/03:00pm 33.0 SE 9 14 1006.7 - 0.0 - Cloudy 10 - - - -
25/02:30pm 33.5 E 9 13 1006.7 - 0.0 - Cloudy 10 - - - -
25/02:00pm 33.8 ENE 9 14 1007.0 - 0.0 - Partly cloudy 10 - - - -
25/01:30pm 33.9 N 11 17 1007.2 - 0.0 - - 10 - - - -
25/01:00pm 35.4 N 12 19 1007.5 - 0.0 - Partly cloudy 10 - - - -
25/12:30pm 33.2 N 8 13 1007.9 - 0.0 - Partly cloudy 10 - - - -
25/12:00pm 33.0 N 10 14 1008.1 - 0.0 - Partly cloudy 10 - - - -
25/11:30am 32.4 WNW 13 17 1008.5 - 0.0 - Partly cloudy 10 - - - -
25/11:00am 32.3 NW 11 15 1008.9 - 0.0 - Partly cloudy 10 - - - -
25/10:30am 31.9 WNW 5 9 1009.1 - 0.0 - Partly cloudy 10 - - - -
25/10:00am 32.0 N 7 11 1009.3 - 0.0 - Partly cloudy 10 - - - -
25/09:30am 32.2 NNE 3 8 1009.4 - 0.0 - Partly cloudy 10 - - - -
25/09:00am 30.5 NNW 5 7 1009.8 - 0.0 - Partly cloudy - - - - -
25/08:30am 29.2 NNW 6 8 1009.9 - 0.0 - Partly cloudy - - - - -
25/08:00am 29.1 NW 8 10 1009.7 - 0.0 - Partly cloudy - - - - -
25/07:30am 28.6 N 5 7 1009.6 - 0.0 - Partly cloudy - - - - -
25/07:00am 27.5 E 4 6 1009.5 - 0.0 - Partly cloudy - - - - -
25/06:30am 26.3 CALM 0 0 1009.2 - 0.0 - Partly cloudy - - - - -
25/06:00am 25.8 NE 1 3 1008.6 - 0.0 - Cloudy - - - - -
25/05:30am 26.5 NNE 2 4 1008.0 - 0.0 - Partly cloudy - - - - -
25/05:00am 26.7 N 1 3 1008.1 - 0.0 - - - - - - -
25/04:30am 27.2 N 2 4 1008.1 - 0.0 - Partly cloudy - - - - -
25/04:00am 27.3 N 4 5 1007.8 - 0.0 - Partly cloudy - - - - -
25/03:30am 27.3 N 4 6 1007.5 - 0.0 - Partly cloudy - - - - -
25/03:00am 27.3 NNW 4 5 1007.7 - 0.0 - Mostly clear - - - - -
25/02:30am 27.4 NW 5 6 1008.1 - 0.0 - - - - - - -
25/02:00am 27.5 NNW 5 6 1008.3 - 0.0 - - - - - - -
25/01:30am 27.4 N 1 3 1008.5 - 0.0 - - - - - - -
25/01:00am 27.6 NE 3 5 1008.8 - 0.0 - - 10 - - - -
25/12:30am 27.6 NE 5 6 1009.0 - 0.0 - - 10 - - - -
25/12:00am 27.9 NE 5 7 1009.6 - 0.0 - - 10 - - - -
 
Date/Time
CST
Temp

°C
Wind Pressure Rain
since 9am
mm
Weather Cloud Vis
km
Sea
Height
m
Swell
Dir
 
Speed
knots
Gust
knots
hPa Trend Height
m
Period
s
Dir
24/11:30pm 28.1 NE 7 9 1009.8 - 0.0 - - 10 - - - -
24/11:00pm 28.1 NE 6 9 1009.9 - 0.0 - - 10 - - - -
24/10:30pm 28.2 NE 6 9 1009.8 - 0.0 - - 10 - - - -
24/10:00pm 28.3 NNE 7 11 1009.3 - 0.0 - - 10 - - - -
24/09:30pm 28.4 NE 6 9 1009.1 - 0.0 - - 10 - - - -
24/09:00pm 28.5 ENE 7 9 1008.7 - 0.0 - - 10 - - - -
24/08:30pm 28.8 NE 8 11 1008.6 - 0.0 - - 10 - - - -
24/08:00pm 28.9 ENE 5 6 1008.4 - 0.0 - - 10 - - - -
24/07:30pm 29.4 ENE 5 7 1008.1 - 0.0 - - 10 - - - -
24/07:00pm 29.4 NE 7 11 1007.5 - 0.0 - - 10 - - - -
24/06:30pm 30.0 NE 8 11 1006.8 - 0.0 - - 10 - - - -
24/06:00pm 30.9 ENE 10 14 1006.6 - 0.0 - - 10 - - - -
24/05:30pm 31.7 NE 9 14 1006.3 - 0.0 - - 10 - - - -
24/05:00pm 32.3 NNE 11 15 1006.5 - 0.0 - Partly cloudy 10 - - - -
24/04:30pm 33.0 NNE 9 11 1006.4 - 0.0 - Partly cloudy 10 - - - -
24/04:00pm 32.4 NNE 8 11 1006.6 - 0.0 - Partly cloudy 10 - - - -
24/03:30pm 32.3 N 9 13 1006.6 - 0.0 - Partly cloudy 10 - - - -
24/03:00pm 32.5 NE 10 14 1006.5 - 0.0 - Cloudy 10 - - - -
24/02:30pm 33.0 N 11 15 1006.8 - 0.0 - Cloudy 10 - - - -
24/02:00pm 32.5 N 10 15 1007.3 - 0.0 - Partly cloudy 10 - - - -
24/01:30pm 32.7 N 9 16 1007.9 - 0.0 - Partly cloudy 10 - - - -
24/01:00pm 32.8 N 10 16 1008.3 - 0.0 - Partly cloudy 10 - - - -
24/12:30pm 33.3 N 10 15 1008.9 - 0.0 - Partly cloudy 10 - - - -
24/12:00pm 33.3 NNE 10 13 1009.7 - 0.0 - Partly cloudy 10 - - - -
24/11:30am 33.1 NNE 10 15 1010.2 - 0.0 - Partly cloudy 10 - - - -
24/11:00am 32.2 N 9 14 1010.4 - 0.0 - Partly cloudy 10 - - - -
24/10:30am 32.2 NNE 9 13 1010.7 - 0.0 - Partly cloudy 10 - - - -
24/10:00am 32.0 N 7 12 1010.9 - 0.0 - Partly cloudy 10 - - - -
24/09:30am 31.1 N 9 11 1011.0 - 0.0 - Partly cloudy 10 - - - -
24/09:00am 30.7 NNE 10 12 1010.9 - 0.0 - Mostly clear - - - - -

Other Formats:

Comma delimited format used in spreadsheet applications
http://www.bom.gov.au/fwo/IDD60701/IDD60701.94153.axf

JavaScript Object Notation format (JSON) in row-major order
http://www.bom.gov.au/fwo/IDD60701/IDD60701.94153.json